createdAt,value
2023-03-22T00:02:26.764Z,42.18
2023-03-22T00:04:54.116Z,41.60
2023-03-22T00:07:21.413Z,41.57
2023-03-22T00:09:48.828Z,41.86
2023-03-22T00:12:16.219Z,41.98
2023-03-22T00:14:43.535Z,41.69
2023-03-22T00:17:11.425Z,41.37
2023-03-22T00:19:42.453Z,41.78
2023-03-22T00:22:11.796Z,41.70
2023-03-22T00:24:39.176Z,42.84
2023-03-22T00:27:06.685Z,41.57
2023-03-22T00:29:34.045Z,41.75
2023-03-22T00:32:01.338Z,41.69
2023-03-22T00:34:31.843Z,42.31
2023-03-22T00:37:00.407Z,42.73
2023-03-22T00:39:27.977Z,41.89
2023-03-22T00:41:55.291Z,41.90
2023-03-22T00:44:22.524Z,42.02
2023-03-22T00:46:49.789Z,42.78
2023-03-22T00:49:17.388Z,42.09
2023-03-22T00:51:44.765Z,42.19
2023-03-22T00:54:12.471Z,42.28
2023-03-22T00:56:40.854Z,41.91
2023-03-22T00:59:13.168Z,42.21
2023-03-22T01:01:41.831Z,42.27
2023-03-22T01:04:09.283Z,42.02
2023-03-22T01:06:37.885Z,41.89
2023-03-22T01:09:05.319Z,43.30
2023-03-22T01:11:32.542Z,42.79
2023-03-22T01:13:59.957Z,42.75
2023-03-22T01:16:27.393Z,42.36
2023-03-22T01:18:54.946Z,44.77
2023-03-22T01:21:22.464Z,42.93
2023-03-22T01:23:51.086Z,42.70
2023-03-22T01:26:18.269Z,43.35
2023-03-22T01:28:45.693Z,42.31
2023-03-22T01:31:13.037Z,42.30
2023-03-22T01:33:40.334Z,42.45
2023-03-22T01:36:42.819Z,42.06
2023-03-22T01:44:13.626Z,42.38
2023-03-22T01:46:41.833Z,42.44
2023-03-22T01:49:12.450Z,42.45
2023-03-22T01:51:43.688Z,42.59
2023-03-22T01:54:30.881Z,42.32
2023-03-22T01:56:59.856Z,42.32
2023-03-22T01:59:35.770Z,42.31
2023-03-22T02:02:26.108Z,42.88
2023-03-22T02:05:01.831Z,42.33
2023-03-22T02:07:32.174Z,42.52
2023-03-22T02:10:02.238Z,42.47
2023-03-22T02:12:40.727Z,42.54
2023-03-22T02:15:34.232Z,42.39
2023-03-22T02:18:43.301Z,42.36
2023-03-22T02:21:19.880Z,42.07
2023-03-22T02:24:02.529Z,42.51
2023-03-22T02:26:44.456Z,42.83
2023-03-22T02:29:26.594Z,42.61
2023-03-22T02:32:23.901Z,42.41
2023-03-22T02:34:54.730Z,42.84
2023-03-22T02:37:34.463Z,42.83
2023-03-22T02:40:16.979Z,43.47
2023-03-22T02:42:47.304Z,42.76
2023-03-22T02:45:21.432Z,43.60
2023-03-22T02:47:50.114Z,43.47
2023-03-22T02:50:23.325Z,42.64
2023-03-22T02:52:53.917Z,42.76
2023-03-22T02:55:26.585Z,43.32
2023-03-22T02:58:03.610Z,42.51
2023-03-22T03:00:31.856Z,42.31
2023-03-22T03:03:11.492Z,42.17
2023-03-22T03:05:54.266Z,42.15
2023-03-22T03:08:22.335Z,42.49
2023-03-22T03:10:50.672Z,42.44
2023-03-22T03:13:18.635Z,42.18
2023-03-22T03:15:49.040Z,42.36
2023-03-22T03:18:48.834Z,42.87
2023-03-22T03:21:35.179Z,44.15
2023-03-22T03:24:14.916Z,43.06
2023-03-22T03:26:43.564Z,42.58
2023-03-22T03:29:14.832Z,42.22
2023-03-22T03:31:48.348Z,42.00
2023-03-22T03:34:18.589Z,42.74
2023-03-22T03:36:52.725Z,42.82
2023-03-22T03:39:21.497Z,42.73
2023-03-22T03:41:50.479Z,42.24
2023-03-22T03:44:18.249Z,43.39
2023-03-22T03:46:46.360Z,43.20
2023-03-22T03:49:14.783Z,41.91
2023-03-22T03:51:46.770Z,41.85
2023-03-22T03:54:14.143Z,41.33
2023-03-22T03:56:41.677Z,41.40
2023-03-22T03:59:09.457Z,41.20
2023-03-22T04:01:36.795Z,39.78
2023-03-22T04:04:14.429Z,40.85
2023-03-22T04:06:46.736Z,41.27
2023-03-22T04:09:18.273Z,40.74
2023-03-22T04:11:50.756Z,39.75
2023-03-22T04:14:18.298Z,39.76
2023-03-22T04:16:48.794Z,39.53
2023-03-22T04:19:20.114Z,39.54
2023-03-22T04:21:47.556Z,37.15
2023-03-22T04:24:15.289Z,39.38
2023-03-22T04:26:45.724Z,35.30
2023-03-22T04:29:32.464Z,32.42
2023-03-22T04:32:19.491Z,35.87
2023-03-22T04:34:47.022Z,35.57
2023-03-22T04:37:17.632Z,36.70
2023-03-22T04:40:01.336Z,32.92
2023-03-22T04:42:47.222Z,35.82
2023-03-22T04:45:22.405Z,35.99
2023-03-22T04:47:55.866Z,36.51
2023-03-22T04:50:23.298Z,35.65
2023-03-22T04:52:56.146Z,28.59
2023-03-22T04:55:23.900Z,33.46
2023-03-22T04:57:51.450Z,30.70
2023-03-22T05:00:19.068Z,33.05
2023-03-22T05:02:47.336Z,31.42
2023-03-22T05:05:21.922Z,28.90
2023-03-22T05:07:51.408Z,32.77
2023-03-22T05:10:19.241Z,30.53
2023-03-22T05:12:47.404Z,29.80
2023-03-22T05:15:39.907Z,26.34
2023-03-22T05:18:07.881Z,27.60
2023-03-22T05:20:36.885Z,23.62
2023-03-22T05:23:24.732Z,27.43
2023-03-22T05:25:58.483Z,31.02
2023-03-22T05:28:29.019Z,27.37
2023-03-22T05:31:17.431Z,30.61
2023-03-22T05:33:52.387Z,26.91
2023-03-22T05:36:23.169Z,23.60
2023-03-22T05:39:10.637Z,22.62
2023-03-22T05:41:38.134Z,28.54
2023-03-22T05:44:05.827Z,23.76
2023-03-22T05:46:35.765Z,24.05
2023-03-22T05:49:35.505Z,29.49
2023-03-22T05:52:06.215Z,23.44
2023-03-22T05:54:52.161Z,25.73
2023-03-22T05:57:20.072Z,28.77
2023-03-22T05:59:47.471Z,27.15
2023-03-22T06:02:22.520Z,28.37
2023-03-22T06:04:50.580Z,26.25
2023-03-22T06:07:19.085Z,28.23
2023-03-22T06:09:56.099Z,23.21
2023-03-22T06:12:28.894Z,27.68
2023-03-22T06:15:04.460Z,25.41
2023-03-22T06:17:51.884Z,23.78
2023-03-22T06:20:23.641Z,24.31
2023-03-22T06:22:57.999Z,21.93
2023-03-22T06:25:25.478Z,26.31
2023-03-22T06:27:53.126Z,22.96
2023-03-22T06:30:22.145Z,25.11
2023-03-22T06:33:08.156Z,26.10
2023-03-22T06:35:39.055Z,26.01
2023-03-22T06:38:08.919Z,25.90
2023-03-22T06:40:38.308Z,21.75
2023-03-22T06:43:07.322Z,24.01
2023-03-22T06:45:38.109Z,25.66
2023-03-22T06:48:06.420Z,22.20
2023-03-22T06:50:46.361Z,25.76
2023-03-22T06:53:18.547Z,22.13
2023-03-22T06:55:45.888Z,24.02
2023-03-22T06:58:22.207Z,21.66
2023-03-22T07:00:49.505Z,24.25
2023-03-22T07:03:19.221Z,25.50
2023-03-22T07:05:52.481Z,25.50
2023-03-22T07:08:20.116Z,22.79
2023-03-22T07:10:51.414Z,25.26
2023-03-22T07:13:21.937Z,24.15
2023-03-22T07:15:56.161Z,24.95
2023-03-22T07:18:36.374Z,25.04
2023-03-22T07:21:03.915Z,23.54
2023-03-22T07:23:31.368Z,24.89
2023-03-22T07:26:06.295Z,25.53
2023-03-22T07:28:36.106Z,24.53
2023-03-22T07:31:06.982Z,25.03
2023-03-22T07:33:49.816Z,24.85
2023-03-22T07:36:17.260Z,26.10
2023-03-22T07:38:44.782Z,25.40
2023-03-22T07:41:17.979Z,26.30
2023-03-22T07:44:07.646Z,26.32
2023-03-22T07:46:47.664Z,26.30
2023-03-22T07:49:31.607Z,25.46
2023-03-22T07:52:11.898Z,26.04
2023-03-22T07:54:39.570Z,27.17
2023-03-22T07:57:08.905Z,26.61
2023-03-22T07:59:42.144Z,24.85
2023-03-22T08:02:10.337Z,26.71
2023-03-22T08:04:43.999Z,25.93
2023-03-22T08:07:20.831Z,27.44
2023-03-22T08:09:48.323Z,25.36
2023-03-22T08:12:15.619Z,24.83
2023-03-22T08:14:46.673Z,25.81
2023-03-22T08:17:18.959Z,25.76
2023-03-22T08:19:46.842Z,26.55
2023-03-22T08:22:26.359Z,25.16
2023-03-22T08:25:12.336Z,25.17
2023-03-22T08:27:40.890Z,26.05
2023-03-22T08:30:10.123Z,27.15
2023-03-22T08:32:37.530Z,27.15
2023-03-22T08:35:05.411Z,27.18
2023-03-22T08:37:32.786Z,26.52
2023-03-22T08:40:02.333Z,26.67
2023-03-22T08:42:38.933Z,27.51
2023-03-22T08:45:07.075Z,27.19
2023-03-22T08:47:37.010Z,27.00
2023-03-22T08:50:08.903Z,27.78
2023-03-22T08:52:47.139Z,26.62
2023-03-22T08:55:22.373Z,27.35
2023-03-22T08:58:07.996Z,27.70
2023-03-22T09:00:51.535Z,27.95
2023-03-22T09:03:34.016Z,27.92
2023-03-22T09:06:01.909Z,27.81
2023-03-22T09:08:34.086Z,27.59
2023-03-22T09:11:11.471Z,27.66
2023-03-22T09:13:39.324Z,27.56
2023-03-22T09:16:09.184Z,27.38
2023-03-22T09:18:37.434Z,27.31
2023-03-22T09:21:10.602Z,27.58
2023-03-22T09:23:50.648Z,27.64
2023-03-22T09:26:23.083Z,27.49
2023-03-22T09:28:52.538Z,27.55
2023-03-22T09:31:20.691Z,27.86
2023-03-22T09:33:55.385Z,28.13
2023-03-22T09:36:22.670Z,27.90
2023-03-22T09:38:50.708Z,28.13
2023-03-22T09:41:22.307Z,28.29
2023-03-22T09:43:59.120Z,28.01
2023-03-22T09:46:30.175Z,28.23
2023-03-22T09:48:58.454Z,28.71
2023-03-22T09:51:31.958Z,28.64
2023-03-22T09:53:59.219Z,28.42
2023-03-22T09:56:28.017Z,28.59
2023-03-22T09:58:55.205Z,29.04
2023-03-22T10:01:26.425Z,28.83
2023-03-22T10:04:01.265Z,28.48
2023-03-22T10:06:29.589Z,28.51
2023-03-22T10:09:19.670Z,28.91
2023-03-22T10:11:49.632Z,28.72
2023-03-22T10:14:25.309Z,29.17
2023-03-22T10:16:55.391Z,29.98
2023-03-22T10:19:27.352Z,28.95
2023-03-22T10:21:56.588Z,29.04
2023-03-22T10:24:27.251Z,29.61
2023-03-22T10:26:54.743Z,30.20
2023-03-22T10:29:42.291Z,29.42
2023-03-22T10:32:12.496Z,29.50
2023-03-22T10:34:39.910Z,29.58
2023-03-22T10:37:07.712Z,30.80
2023-03-22T10:39:55.239Z,29.40
2023-03-22T10:42:25.144Z,29.42
2023-03-22T10:45:03.356Z,30.27
2023-03-22T10:47:42.664Z,29.35
2023-03-22T10:50:17.294Z,30.08
2023-03-22T10:52:57.859Z,29.55
2023-03-22T10:55:25.735Z,29.43
2023-03-22T10:58:12.757Z,30.16
2023-03-22T11:03:40.941Z,29.74
2023-03-22T11:06:12.129Z,29.77
2023-03-22T11:08:59.691Z,30.11
2023-03-22T11:11:31.302Z,30.39
2023-03-22T11:14:04.727Z,30.48
2023-03-22T11:16:32.695Z,29.92
2023-03-22T11:19:02.018Z,30.03
2023-03-22T11:21:32.283Z,30.58
2023-03-22T11:24:02.338Z,30.28
2023-03-22T11:26:35.895Z,30.21
2023-03-22T11:29:10.860Z,31.22
2023-03-22T11:32:04.624Z,30.08
2023-03-22T11:34:32.036Z,30.28
2023-03-22T11:37:08.050Z,30.96
2023-03-22T11:39:35.234Z,30.03
2023-03-22T11:42:06.645Z,30.13
2023-03-22T11:44:35.785Z,30.86
2023-03-22T11:47:04.688Z,30.13
2023-03-22T11:49:38.401Z,30.35
2023-03-22T11:52:26.445Z,30.22
2023-03-22T11:54:54.935Z,30.52
2023-03-22T11:57:24.742Z,30.25
2023-03-22T12:00:07.279Z,30.55
2023-03-22T12:02:57.867Z,32.17
2023-03-22T12:05:27.756Z,30.47
2023-03-22T12:08:03.884Z,30.46
2023-03-22T12:10:39.079Z,30.52
2023-03-22T12:13:11.988Z,30.69
2023-03-22T12:15:42.261Z,30.52
2023-03-22T12:18:16.801Z,30.69
2023-03-22T12:20:54.028Z,30.70
2023-03-22T12:23:23.593Z,30.53
2023-03-22T12:25:53.829Z,30.86
2023-03-22T12:28:23.423Z,30.91
2023-03-22T12:30:53.441Z,30.73
2023-03-22T12:33:33.102Z,31.27
2023-03-22T12:36:05.293Z,31.11
2023-03-22T12:38:44.367Z,31.44
2023-03-22T12:41:14.843Z,31.01
2023-03-22T12:43:42.242Z,31.35
2023-03-22T12:46:15.541Z,31.61
2023-03-22T12:48:46.614Z,31.26
2023-03-22T12:51:14.612Z,32.51
2023-03-22T12:53:52.135Z,31.91
2023-03-22T12:56:23.296Z,31.29
2023-03-22T12:58:52.941Z,33.05
2023-03-22T13:01:20.657Z,31.53
2023-03-22T13:03:52.345Z,31.59
2023-03-22T13:06:33.916Z,33.07
2023-03-22T13:09:16.740Z,33.95
2023-03-22T13:11:45.981Z,34.98
2023-03-22T13:14:33.304Z,34.17
2023-03-22T13:17:01.410Z,35.14
2023-03-22T13:19:37.967Z,36.03
2023-03-22T13:22:16.288Z,34.13
2023-03-22T13:25:10.659Z,36.71
2023-03-22T13:27:40.682Z,34.42
2023-03-22T13:30:34.960Z,33.38
2023-03-22T13:33:03.877Z,33.60
2023-03-22T13:35:45.185Z,33.56
2023-03-22T13:38:19.852Z,36.33
2023-03-22T13:40:47.169Z,33.63
2023-03-22T13:43:17.648Z,33.33
2023-03-22T13:46:17.437Z,37.07
2023-03-22T13:48:48.019Z,34.74
2023-03-22T13:51:15.972Z,34.22
2023-03-22T13:53:47.490Z,37.04
2023-03-22T13:56:28.325Z,37.19
2023-03-22T13:58:55.617Z,35.19
2023-03-22T14:01:29.378Z,35.32
2023-03-22T14:04:01.560Z,33.92
2023-03-22T14:06:32.093Z,34.53
2023-03-22T14:09:02.575Z,33.62
2023-03-22T14:11:33.215Z,33.78
2023-03-22T14:14:04.535Z,33.52
2023-03-22T14:16:38.479Z,33.41
2023-03-22T14:19:06.735Z,33.48
2023-03-22T14:21:42.012Z,33.53
